sensor_id;sensor_type;location;lat;lon;timestamp;P1;durP1;ratioP1;P2;durP2;ratioP2
71435;SDS011;59251;51.326;12.370;2023-05-21T00:01:08;24.07;;;14.20;;
71435;SDS011;59251;51.326;12.370;2023-05-21T00:03:33;25.70;;;14.53;;
71435;SDS011;59251;51.326;12.370;2023-05-21T00:06:00;26.50;;;15.48;;
71435;SDS011;59251;51.326;12.370;2023-05-21T00:08:27;28.25;;;15.95;;
71435;SDS011;59251;51.326;12.370;2023-05-21T00:10:53;28.13;;;15.73;;
71435;SDS011;59251;51.326;12.370;2023-05-21T00:13:18;28.20;;;14.73;;
71435;SDS011;59251;51.326;12.370;2023-05-21T00:15:43;29.53;;;16.63;;
71435;SDS011;59251;51.326;12.370;2023-05-21T00:18:09;29.17;;;15.87;;
71435;SDS011;59251;51.326;12.370;2023-05-21T00:20:34;28.87;;;15.83;;
71435;SDS011;59251;51.326;12.370;2023-05-21T00:23:01;26.60;;;14.68;;
71435;SDS011;59251;51.326;12.370;2023-05-21T00:25:26;26.23;;;15.23;;
71435;SDS011;59251;51.326;12.370;2023-05-21T00:27:53;28.50;;;15.23;;
71435;SDS011;59251;51.326;12.370;2023-05-21T00:30:18;28.95;;;16.00;;
71435;SDS011;59251;51.326;12.370;2023-05-21T00:32:44;29.37;;;15.43;;
71435;SDS011;59251;51.326;12.370;2023-05-21T00:35:09;26.57;;;15.57;;
71435;SDS011;59251;51.326;12.370;2023-05-21T00:37:35;28.07;;;15.70;;
71435;SDS011;59251;51.326;12.370;2023-05-21T00:40:00;29.47;;;15.83;;
71435;SDS011;59251;51.326;12.370;2023-05-21T00:42:26;26.90;;;15.52;;
71435;SDS011;59251;51.326;12.370;2023-05-21T00:44:54;28.25;;;15.90;;
71435;SDS011;59251;51.326;12.370;2023-05-21T00:47:20;30.23;;;15.03;;
71435;SDS011;59251;51.326;12.370;2023-05-21T00:49:46;31.47;;;17.47;;
71435;SDS011;59251;51.326;12.370;2023-05-21T00:52:12;32.33;;;17.90;;
71435;SDS011;59251;51.326;12.370;2023-05-21T00:54:39;30.85;;;16.60;;
71435;SDS011;59251;51.326;12.370;2023-05-21T00:57:05;28.40;;;15.95;;
71435;SDS011;59251;51.326;12.370;2023-05-21T00:59:31;32.50;;;16.13;;
71435;SDS011;59251;51.326;12.370;2023-05-21T01:01:57;28.02;;;16.15;;
71435;SDS011;59251;51.326;12.370;2023-05-21T01:04:28;34.33;;;17.33;;
71435;SDS011;59251;51.326;12.370;2023-05-21T01:06:54;29.08;;;16.40;;
71435;SDS011;59251;51.326;12.370;2023-05-21T01:09:20;31.43;;;17.53;;
71435;SDS011;59251;51.326;12.370;2023-05-21T01:11:46;29.08;;;16.05;;
71435;SDS011;59251;51.326;12.370;2023-05-21T01:14:14;31.15;;;17.13;;
71435;SDS011;59251;51.326;12.370;2023-05-21T01:16:41;31.05;;;19.08;;
71435;SDS011;59251;51.326;12.370;2023-05-21T01:19:09;32.50;;;17.08;;
71435;SDS011;59251;51.326;12.370;2023-05-21T01:21:40;33.90;;;18.75;;
71435;SDS011;59251;51.326;12.370;2023-05-21T01:24:08;30.80;;;17.35;;
71435;SDS011;59251;51.326;12.370;2023-05-21T01:26:34;30.37;;;17.97;;
71435;SDS011;59251;51.326;12.370;2023-05-21T01:29:05;33.90;;;18.17;;
71435;SDS011;59251;51.326;12.370;2023-05-21T01:31:36;33.88;;;17.80;;
71435;SDS011;59251;51.326;12.370;2023-05-21T01:34:26;30.60;;;16.80;;
71435;SDS011;59251;51.326;12.370;2023-05-21T01:37:11;30.85;;;17.67;;
71435;SDS011;59251;51.326;12.370;2023-05-21T01:39:43;31.92;;;18.10;;
71435;SDS011;59251;51.326;12.370;2023-05-21T01:42:10;31.65;;;17.85;;
71435;SDS011;59251;51.326;12.370;2023-05-21T01:44:37;32.30;;;17.20;;
71435;SDS011;59251;51.326;12.370;2023-05-21T01:47:05;31.35;;;17.98;;
71435;SDS011;59251;51.326;12.370;2023-05-21T01:49:30;35.50;;;19.95;;
71435;SDS011;59251;51.326;12.370;2023-05-21T01:51:56;33.45;;;17.65;;
71435;SDS011;59251;51.326;12.370;2023-05-21T01:54:22;31.33;;;17.77;;
71435;SDS011;59251;51.326;12.370;2023-05-21T01:56:48;32.83;;;17.50;;
71435;SDS011;59251;51.326;12.370;2023-05-21T01:59:13;32.23;;;18.10;;
71435;SDS011;59251;51.326;12.370;2023-05-21T02:01:39;32.38;;;18.55;;
71435;SDS011;59251;51.326;12.370;2023-05-21T02:04:04;31.27;;;17.23;;
71435;SDS011;59251;51.326;12.370;2023-05-21T02:06:29;30.77;;;18.00;;
71435;SDS011;59251;51.326;12.370;2023-05-21T02:08:55;34.23;;;17.63;;
71435;SDS011;59251;51.326;12.370;2023-05-21T02:11:21;30.08;;;16.80;;
71435;SDS011;59251;51.326;12.370;2023-05-21T02:13:47;32.03;;;18.20;;
71435;SDS011;59251;51.326;12.370;2023-05-21T02:16:12;33.00;;;18.37;;
71435;SDS011;59251;51.326;12.370;2023-05-21T02:18:40;30.92;;;17.77;;
71435;SDS011;59251;51.326;12.370;2023-05-21T02:21:08;32.30;;;19.40;;
71435;SDS011;59251;51.326;12.370;2023-05-21T02:23:35;32.13;;;18.08;;
71435;SDS011;59251;51.326;12.370;2023-05-21T02:26:01;32.05;;;18.33;;
71435;SDS011;59251;51.326;12.370;2023-05-21T02:28:27;35.38;;;18.02;;
71435;SDS011;59251;51.326;12.370;2023-05-21T02:30:55;36.20;;;19.27;;
71435;SDS011;59251;51.326;12.370;2023-05-21T02:33:20;32.70;;;18.67;;
71435;SDS011;59251;51.326;12.370;2023-05-21T02:35:46;32.38;;;17.75;;
71435;SDS011;59251;51.326;12.370;2023-05-21T02:38:12;32.83;;;18.33;;
71435;SDS011;59251;51.326;12.370;2023-05-21T02:40:38;32.80;;;17.70;;
71435;SDS011;59251;51.326;12.370;2023-05-21T02:43:04;33.65;;;17.98;;
71435;SDS011;59251;51.326;12.370;2023-05-21T02:45:29;34.13;;;18.73;;
71435;SDS011;59251;51.326;12.370;2023-05-21T02:47:55;32.38;;;17.70;;
71435;SDS011;59251;51.326;12.370;2023-05-21T02:50:20;33.77;;;18.57;;
71435;SDS011;59251;51.326;12.370;2023-05-21T02:52:46;31.70;;;17.92;;
71435;SDS011;59251;51.326;12.370;2023-05-21T02:55:12;33.58;;;18.73;;
71435;SDS011;59251;51.326;12.370;2023-05-21T02:57:38;34.80;;;18.70;;
71435;SDS011;59251;51.326;12.370;2023-05-21T03:00:03;34.53;;;18.67;;
71435;SDS011;59251;51.326;12.370;2023-05-21T03:02:30;30.92;;;18.10;;
71435;SDS011;59251;51.326;12.370;2023-05-21T03:04:55;31.65;;;18.10;;
71435;SDS011;59251;51.326;12.370;2023-05-21T03:07:21;35.33;;;18.53;;
71435;SDS011;59251;51.326;12.370;2023-05-21T03:09:48;32.70;;;17.67;;
71435;SDS011;59251;51.326;12.370;2023-05-21T03:12:13;32.40;;;17.33;;
71435;SDS011;59251;51.326;12.370;2023-05-21T03:14:38;33.40;;;18.17;;
71435;SDS011;59251;51.326;12.370;2023-05-21T03:17:04;34.90;;;17.67;;
71435;SDS011;59251;51.326;12.370;2023-05-21T03:19:30;35.50;;;19.20;;
71435;SDS011;59251;51.326;12.370;2023-05-21T03:22:00;38.47;;;20.42;;
71435;SDS011;59251;51.326;12.370;2023-05-21T03:24:26;34.05;;;18.48;;
71435;SDS011;59251;51.326;12.370;2023-05-21T03:26:54;35.72;;;19.25;;
71435;SDS011;59251;51.326;12.370;2023-05-21T03:29:20;36.20;;;19.05;;
71435;SDS011;59251;51.326;12.370;2023-05-21T03:31:45;36.30;;;19.20;;
71435;SDS011;59251;51.326;12.370;2023-05-21T03:34:11;36.03;;;20.13;;
71435;SDS011;59251;51.326;12.370;2023-05-21T03:36:36;34.10;;;18.13;;
71435;SDS011;59251;51.326;12.370;2023-05-21T03:39:02;32.60;;;19.13;;
71435;SDS011;59251;51.326;12.370;2023-05-21T03:41:28;36.22;;;19.65;;
71435;SDS011;59251;51.326;12.370;2023-05-21T03:43:53;35.63;;;18.58;;
71435;SDS011;59251;51.326;12.370;2023-05-21T03:46:18;33.80;;;19.23;;
71435;SDS011;59251;51.326;12.370;2023-05-21T03:48:44;39.33;;;19.77;;
71435;SDS011;59251;51.326;12.370;2023-05-21T03:51:09;35.60;;;19.43;;
71435;SDS011;59251;51.326;12.370;2023-05-21T03:53:35;34.97;;;19.23;;
71435;SDS011;59251;51.326;12.370;2023-05-21T03:56:00;37.30;;;20.15;;
71435;SDS011;59251;51.326;12.370;2023-05-21T03:58:26;34.33;;;19.53;;
71435;SDS011;59251;51.326;12.370;2023-05-21T04:00:52;38.75;;;20.42;;
71435;SDS011;59251;51.326;12.370;2023-05-21T04:03:17;33.53;;;18.07;;
71435;SDS011;59251;51.326;12.370;2023-05-21T04:05:42;33.63;;;19.00;;
71435;SDS011;59251;51.326;12.370;2023-05-21T04:08:08;33.88;;;19.02;;
71435;SDS011;59251;51.326;12.370;2023-05-21T04:10:34;36.80;;;19.10;;
71435;SDS011;59251;51.326;12.370;2023-05-21T04:13:00;34.85;;;18.42;;
71435;SDS011;59251;51.326;12.370;2023-05-21T04:15:25;32.90;;;17.93;;
71435;SDS011;59251;51.326;12.370;2023-05-21T04:17:51;33.70;;;18.23;;
71435;SDS011;59251;51.326;12.370;2023-05-21T04:20:17;33.33;;;18.57;;
71435;SDS011;59251;51.326;12.370;2023-05-21T04:22:42;36.70;;;18.95;;
71435;SDS011;59251;51.326;12.370;2023-05-21T04:25:08;32.13;;;18.48;;
71435;SDS011;59251;51.326;12.370;2023-05-21T04:27:34;32.30;;;18.80;;
71435;SDS011;59251;51.326;12.370;2023-05-21T04:30:00;34.83;;;17.95;;
71435;SDS011;59251;51.326;12.370;2023-05-21T04:32:27;34.10;;;18.60;;
71435;SDS011;59251;51.326;12.370;2023-05-21T04:34:54;33.13;;;18.38;;
71435;SDS011;59251;51.326;12.370;2023-05-21T04:37:20;34.13;;;19.40;;
71435;SDS011;59251;51.326;12.370;2023-05-21T04:39:48;32.95;;;17.77;;
71435;SDS011;59251;51.326;12.370;2023-05-21T04:42:14;34.17;;;19.13;;
71435;SDS011;59251;51.326;12.370;2023-05-21T04:44:39;34.30;;;18.50;;
71435;SDS011;59251;51.326;12.370;2023-05-21T04:47:05;38.25;;;19.60;;
71435;SDS011;59251;51.326;12.370;2023-05-21T04:49:31;35.05;;;19.40;;
71435;SDS011;59251;51.326;12.370;2023-05-21T04:51:58;36.63;;;19.20;;
71435;SDS011;59251;51.326;12.370;2023-05-21T04:54:24;31.57;;;17.93;;
71435;SDS011;59251;51.326;12.370;2023-05-21T04:56:50;35.40;;;17.50;;
71435;SDS011;59251;51.326;12.370;2023-05-21T04:59:15;32.05;;;17.83;;
71435;SDS011;59251;51.326;12.370;2023-05-21T05:01:41;33.17;;;18.40;;
71435;SDS011;59251;51.326;12.370;2023-05-21T05:04:07;31.20;;;17.58;;
71435;SDS011;59251;51.326;12.370;2023-05-21T05:06:33;31.63;;;18.60;;
71435;SDS011;59251;51.326;12.370;2023-05-21T05:08:58;32.53;;;18.83;;
71435;SDS011;59251;51.326;12.370;2023-05-21T05:11:24;32.60;;;17.67;;
71435;SDS011;59251;51.326;12.370;2023-05-21T05:13:50;32.55;;;17.95;;
71435;SDS011;59251;51.326;12.370;2023-05-21T05:16:16;32.47;;;18.40;;
71435;SDS011;59251;51.326;12.370;2023-05-21T05:18:43;31.20;;;19.00;;
71435;SDS011;59251;51.326;12.370;2023-05-21T05:21:08;31.80;;;17.77;;
71435;SDS011;59251;51.326;12.370;2023-05-21T05:23:34;31.50;;;18.67;;
71435;SDS011;59251;51.326;12.370;2023-05-21T05:25:59;31.43;;;18.10;;
71435;SDS011;59251;51.326;12.370;2023-05-21T05:28:24;32.10;;;17.57;;
71435;SDS011;59251;51.326;12.370;2023-05-21T05:30:50;32.53;;;16.97;;
71435;SDS011;59251;51.326;12.370;2023-05-21T05:33:15;29.50;;;17.03;;
71435;SDS011;59251;51.326;12.370;2023-05-21T05:35:40;27.73;;;15.90;;
71435;SDS011;59251;51.326;12.370;2023-05-21T05:38:06;28.60;;;16.10;;
71435;SDS011;59251;51.326;12.370;2023-05-21T05:40:32;29.27;;;17.17;;
71435;SDS011;59251;51.326;12.370;2023-05-21T05:42:58;28.27;;;17.00;;
71435;SDS011;59251;51.326;12.370;2023-05-21T05:45:24;29.10;;;16.70;;
71435;SDS011;59251;51.326;12.370;2023-05-21T05:47:50;30.05;;;17.55;;
71435;SDS011;59251;51.326;12.370;2023-05-21T05:50:16;28.20;;;16.73;;
71435;SDS011;59251;51.326;12.370;2023-05-21T05:52:41;28.70;;;16.40;;
71435;SDS011;59251;51.326;12.370;2023-05-21T05:55:07;26.23;;;15.80;;
71435;SDS011;59251;51.326;12.370;2023-05-21T05:57:32;28.03;;;15.87;;
71435;SDS011;59251;51.326;12.370;2023-05-21T05:59:58;28.88;;;17.35;;
71435;SDS011;59251;51.326;12.370;2023-05-21T06:02:23;29.27;;;16.27;;
71435;SDS011;59251;51.326;12.370;2023-05-21T06:04:48;27.27;;;16.33;;
71435;SDS011;59251;51.326;12.370;2023-05-21T06:07:14;28.00;;;16.87;;
71435;SDS011;59251;51.326;12.370;2023-05-21T06:09:39;27.07;;;16.07;;
71435;SDS011;59251;51.326;12.370;2023-05-21T06:12:05;28.53;;;16.67;;
71435;SDS011;59251;51.326;12.370;2023-05-21T06:14:31;24.75;;;15.52;;
71435;SDS011;59251;51.326;12.370;2023-05-21T06:16:56;25.07;;;15.33;;
71435;SDS011;59251;51.326;12.370;2023-05-21T06:19:22;24.40;;;15.43;;
71435;SDS011;59251;51.326;12.370;2023-05-21T06:21:47;27.90;;;16.70;;
71435;SDS011;59251;51.326;12.370;2023-05-21T06:24:13;28.87;;;16.73;;
71435;SDS011;59251;51.326;12.370;2023-05-21T06:26:38;25.57;;;15.23;;
71435;SDS011;59251;51.326;12.370;2023-05-21T06:29:04;24.80;;;15.67;;
71435;SDS011;59251;51.326;12.370;2023-05-21T06:31:29;28.10;;;15.90;;
71435;SDS011;59251;51.326;12.370;2023-05-21T06:33:57;26.53;;;15.17;;
71435;SDS011;59251;51.326;12.370;2023-05-21T06:36:22;28.13;;;17.23;;
71435;SDS011;59251;51.326;12.370;2023-05-21T06:38:50;25.45;;;15.98;;
71435;SDS011;59251;51.326;12.370;2023-05-21T06:41:15;26.77;;;16.50;;
71435;SDS011;59251;51.326;12.370;2023-05-21T06:43:40;26.17;;;16.03;;
71435;SDS011;59251;51.326;12.370;2023-05-21T06:46:06;25.37;;;16.37;;
71435;SDS011;59251;51.326;12.370;2023-05-21T06:48:31;27.67;;;15.73;;
71435;SDS011;59251;51.326;12.370;2023-05-21T06:50:56;27.33;;;16.07;;
71435;SDS011;59251;51.326;12.370;2023-05-21T06:53:22;27.73;;;15.77;;
71435;SDS011;59251;51.326;12.370;2023-05-21T06:55:47;30.23;;;17.97;;
71435;SDS011;59251;51.326;12.370;2023-05-21T06:58:13;25.90;;;15.53;;
71435;SDS011;59251;51.326;12.370;2023-05-21T07:00:38;25.87;;;15.47;;
71435;SDS011;59251;51.326;12.370;2023-05-21T07:03:03;24.77;;;15.13;;
71435;SDS011;59251;51.326;12.370;2023-05-21T07:05:29;30.70;;;15.70;;
71435;SDS011;59251;51.326;12.370;2023-05-21T07:07:54;29.03;;;15.90;;
71435;SDS011;59251;51.326;12.370;2023-05-21T07:10:20;24.02;;;15.88;;
71435;SDS011;59251;51.326;12.370;2023-05-21T07:12:45;24.47;;;15.57;;
71435;SDS011;59251;51.326;12.370;2023-05-21T07:15:11;24.40;;;14.33;;
71435;SDS011;59251;51.326;12.370;2023-05-21T07:17:36;27.30;;;15.30;;
71435;SDS011;59251;51.326;12.370;2023-05-21T07:20:02;23.90;;;14.88;;
71435;SDS011;59251;51.326;12.370;2023-05-21T07:22:30;24.27;;;14.67;;
71435;SDS011;59251;51.326;12.370;2023-05-21T07:24:55;24.93;;;14.90;;
71435;SDS011;59251;51.326;12.370;2023-05-21T07:27:21;22.60;;;13.85;;
71435;SDS011;59251;51.326;12.370;2023-05-21T07:29:46;23.43;;;14.70;;
71435;SDS011;59251;51.326;12.370;2023-05-21T07:32:12;21.70;;;13.93;;
71435;SDS011;59251;51.326;12.370;2023-05-21T07:34:37;25.37;;;15.13;;
71435;SDS011;59251;51.326;12.370;2023-05-21T07:37:02;22.13;;;13.57;;
71435;SDS011;59251;51.326;12.370;2023-05-21T07:39:28;24.10;;;14.60;;
71435;SDS011;59251;51.326;12.370;2023-05-21T07:41:53;21.13;;;13.77;;
71435;SDS011;59251;51.326;12.370;2023-05-21T07:44:19;22.07;;;14.30;;
71435;SDS011;59251;51.326;12.370;2023-05-21T07:46:44;21.70;;;14.33;;
71435;SDS011;59251;51.326;12.370;2023-05-21T07:49:10;23.73;;;14.57;;
71435;SDS011;59251;51.326;12.370;2023-05-21T07:51:40;19.83;;;12.80;;
71435;SDS011;59251;51.326;12.370;2023-05-21T07:54:06;20.27;;;12.90;;
71435;SDS011;59251;51.326;12.370;2023-05-21T07:56:31;21.53;;;14.07;;
71435;SDS011;59251;51.326;12.370;2023-05-21T07:58:57;23.50;;;14.13;;
71435;SDS011;59251;51.326;12.370;2023-05-21T08:01:22;21.85;;;12.50;;
71435;SDS011;59251;51.326;12.370;2023-05-21T08:03:47;21.17;;;13.30;;
71435;SDS011;59251;51.326;12.370;2023-05-21T08:06:13;20.77;;;14.10;;
71435;SDS011;59251;51.326;12.370;2023-05-21T08:08:38;19.07;;;12.30;;
71435;SDS011;59251;51.326;12.370;2023-05-21T08:11:04;20.70;;;12.33;;
71435;SDS011;59251;51.326;12.370;2023-05-21T08:13:29;20.33;;;13.33;;
71435;SDS011;59251;51.326;12.370;2023-05-21T08:15:54;21.17;;;13.63;;
71435;SDS011;59251;51.326;12.370;2023-05-21T08:18:20;18.20;;;12.43;;
71435;SDS011;59251;51.326;12.370;2023-05-21T08:20:47;19.90;;;12.93;;
71435;SDS011;59251;51.326;12.370;2023-05-21T08:23:14;20.02;;;13.63;;
71435;SDS011;59251;51.326;12.370;2023-05-21T08:25:39;19.13;;;13.43;;
71435;SDS011;59251;51.326;12.370;2023-05-21T08:28:05;20.60;;;13.47;;
71435;SDS011;59251;51.326;12.370;2023-05-21T08:30:31;19.42;;;12.57;;
71435;SDS011;59251;51.326;12.370;2023-05-21T08:32:56;19.10;;;12.27;;
71435;SDS011;59251;51.326;12.370;2023-05-21T08:35:22;19.77;;;12.18;;
71435;SDS011;59251;51.326;12.370;2023-05-21T08:37:48;17.30;;;11.43;;
71435;SDS011;59251;51.326;12.370;2023-05-21T08:40:13;18.07;;;12.40;;
71435;SDS011;59251;51.326;12.370;2023-05-21T08:42:42;22.05;;;13.13;;
71435;SDS011;59251;51.326;12.370;2023-05-21T08:45:13;22.17;;;13.23;;
71435;SDS011;59251;51.326;12.370;2023-05-21T08:47:43;19.33;;;12.68;;
71435;SDS011;59251;51.326;12.370;2023-05-21T08:50:11;18.60;;;12.43;;
71435;SDS011;59251;51.326;12.370;2023-05-21T08:52:37;19.45;;;12.95;;
71435;SDS011;59251;51.326;12.370;2023-05-21T08:55:02;20.63;;;13.70;;
71435;SDS011;59251;51.326;12.370;2023-05-21T08:57:29;20.23;;;13.00;;
71435;SDS011;59251;51.326;12.370;2023-05-21T08:59:56;19.42;;;13.27;;
71435;SDS011;59251;51.326;12.370;2023-05-21T09:02:24;19.67;;;12.40;;
71435;SDS011;59251;51.326;12.370;2023-05-21T09:04:49;21.27;;;12.32;;
71435;SDS011;59251;51.326;12.370;2023-05-21T09:07:20;18.55;;;11.80;;
71435;SDS011;59251;51.326;12.370;2023-05-21T09:09:51;17.83;;;11.85;;
71435;SDS011;59251;51.326;12.370;2023-05-21T09:12:24;18.57;;;11.97;;
71435;SDS011;59251;51.326;12.370;2023-05-21T09:14:51;18.77;;;11.95;;
71435;SDS011;59251;51.326;12.370;2023-05-21T09:17:17;18.17;;;11.87;;
71435;SDS011;59251;51.326;12.370;2023-05-21T09:22:40;19.67;;;12.88;;
71435;SDS011;59251;51.326;12.370;2023-05-21T09:25:07;20.48;;;13.13;;
71435;SDS011;59251;51.326;12.370;2023-05-21T09:27:37;18.17;;;12.25;;
71435;SDS011;59251;51.326;12.370;2023-05-21T09:30:03;16.80;;;11.83;;
71435;SDS011;59251;51.326;12.370;2023-05-21T09:32:33;19.35;;;13.05;;
71435;SDS011;59251;51.326;12.370;2023-05-21T09:35:03;21.10;;;14.50;;
71435;SDS011;59251;51.326;12.370;2023-05-21T09:37:31;20.30;;;12.57;;
71435;SDS011;59251;51.326;12.370;2023-05-21T09:40:01;17.92;;;11.40;;
71435;SDS011;59251;51.326;12.370;2023-05-21T09:42:34;17.13;;;11.57;;
71435;SDS011;59251;51.326;12.370;2023-05-21T09:44:59;20.23;;;11.40;;
71435;SDS011;59251;51.326;12.370;2023-05-21T09:47:24;19.20;;;12.87;;
71435;SDS011;59251;51.326;12.370;2023-05-21T09:49:50;19.13;;;11.65;;
71435;SDS011;59251;51.326;12.370;2023-05-21T09:52:24;20.80;;;12.63;;
71435;SDS011;59251;51.326;12.370;2023-05-21T09:54:54;19.17;;;12.23;;
71435;SDS011;59251;51.326;12.370;2023-05-21T09:57:23;19.57;;;12.03;;
71435;SDS011;59251;51.326;12.370;2023-05-21T09:59:49;17.95;;;11.40;;
71435;SDS011;59251;51.326;12.370;2023-05-21T10:02:16;17.90;;;11.07;;
71435;SDS011;59251;51.326;12.370;2023-05-21T10:04:44;18.42;;;12.40;;
71435;SDS011;59251;51.326;12.370;2023-05-21T10:07:14;18.45;;;10.68;;
71435;SDS011;59251;51.326;12.370;2023-05-21T10:09:52;17.85;;;11.57;;
71435;SDS011;59251;51.326;12.370;2023-05-21T10:12:19;17.92;;;11.13;;
71435;SDS011;59251;51.326;12.370;2023-05-21T10:14:49;16.40;;;11.07;;
71435;SDS011;59251;51.326;12.370;2023-05-21T10:17:18;17.95;;;11.45;;
71435;SDS011;59251;51.326;12.370;2023-05-21T10:19:44;16.17;;;10.68;;
71435;SDS011;59251;51.326;12.370;2023-05-21T10:22:11;18.38;;;11.15;;
71435;SDS011;59251;51.326;12.370;2023-05-21T10:24:37;17.70;;;12.37;;
71435;SDS011;59251;51.326;12.370;2023-05-21T10:27:04;18.33;;;11.80;;
71435;SDS011;59251;51.326;12.370;2023-05-21T10:29:31;16.42;;;9.80;;
71435;SDS011;59251;51.326;12.370;2023-05-21T10:31:56;14.93;;;9.77;;
71435;SDS011;59251;51.326;12.370;2023-05-21T10:34:24;16.60;;;10.27;;
71435;SDS011;59251;51.326;12.370;2023-05-21T10:36:51;15.38;;;10.45;;
71435;SDS011;59251;51.326;12.370;2023-05-21T10:39:19;14.15;;;9.88;;
71435;SDS011;59251;51.326;12.370;2023-05-21T10:42:07;14.95;;;9.63;;
71435;SDS011;59251;51.326;12.370;2023-05-21T10:50:29;16.65;;;10.32;;
71435;SDS011;59251;51.326;12.370;2023-05-21T10:53:28;19.00;;;9.82;;
71435;SDS011;59251;51.326;12.370;2023-05-21T11:01:27;12.45;;;8.02;;
71435;SDS011;59251;51.326;12.370;2023-05-21T11:03:57;15.75;;;9.43;;
71435;SDS011;59251;51.326;12.370;2023-05-21T11:06:26;14.30;;;8.83;;
71435;SDS011;59251;51.326;12.370;2023-05-21T11:08:52;15.45;;;10.02;;
71435;SDS011;59251;51.326;12.370;2023-05-21T11:17:09;15.38;;;9.10;;
71435;SDS011;59251;51.326;12.370;2023-05-21T11:20:02;15.75;;;10.05;;
71435;SDS011;59251;51.326;12.370;2023-05-21T11:22:31;13.90;;;9.35;;
71435;SDS011;59251;51.326;12.370;2023-05-21T11:25:00;15.02;;;9.57;;
71435;SDS011;59251;51.326;12.370;2023-05-21T11:27:36;14.67;;;8.83;;
71435;SDS011;59251;51.326;12.370;2023-05-21T11:30:02;13.75;;;9.85;;
71435;SDS011;59251;51.326;12.370;2023-05-21T11:32:28;14.30;;;9.55;;
71435;SDS011;59251;51.326;12.370;2023-05-21T11:34:55;14.35;;;9.15;;
71435;SDS011;59251;51.326;12.370;2023-05-21T11:37:25;14.95;;;9.05;;
71435;SDS011;59251;51.326;12.370;2023-05-21T11:39:54;15.40;;;9.53;;
71435;SDS011;59251;51.326;12.370;2023-05-21T11:42:38;18.38;;;9.98;;
71435;SDS011;59251;51.326;12.370;2023-05-21T11:45:06;13.20;;;9.20;;
71435;SDS011;59251;51.326;12.370;2023-05-21T11:47:32;15.55;;;9.00;;
71435;SDS011;59251;51.326;12.370;2023-05-21T11:49:59;13.77;;;8.87;;
71435;SDS011;59251;51.326;12.370;2023-05-21T11:52:27;12.98;;;8.25;;
71435;SDS011;59251;51.326;12.370;2023-05-21T11:54:54;14.52;;;9.57;;
71435;SDS011;59251;51.326;12.370;2023-05-21T11:57:21;12.40;;;8.60;;
71435;SDS011;59251;51.326;12.370;2023-05-21T11:59:49;14.55;;;8.98;;
71435;SDS011;59251;51.326;12.370;2023-05-21T12:02:19;15.73;;;9.73;;
71435;SDS011;59251;51.326;12.370;2023-05-21T12:04:46;11.98;;;8.60;;
71435;SDS011;59251;51.326;12.370;2023-05-21T12:07:14;13.25;;;9.13;;
71435;SDS011;59251;51.326;12.370;2023-05-21T12:09:49;14.00;;;9.53;;
71435;SDS011;59251;51.326;12.370;2023-05-21T12:12:16;14.15;;;9.73;;
71435;SDS011;59251;51.326;12.370;2023-05-21T12:14:43;15.30;;;9.32;;
71435;SDS011;59251;51.326;12.370;2023-05-21T12:17:10;14.00;;;9.57;;
71435;SDS011;59251;51.326;12.370;2023-05-21T12:19:37;15.13;;;8.77;;
71435;SDS011;59251;51.326;12.370;2023-05-21T12:22:03;14.70;;;9.48;;
71435;SDS011;59251;51.326;12.370;2023-05-21T12:24:30;15.17;;;9.53;;
71435;SDS011;59251;51.326;12.370;2023-05-21T12:26:59;12.95;;;9.38;;
71435;SDS011;59251;51.326;12.370;2023-05-21T12:29:30;13.18;;;9.02;;
71435;SDS011;59251;51.326;12.370;2023-05-21T12:32:02;11.45;;;8.82;;
71435;SDS011;59251;51.326;12.370;2023-05-21T12:34:40;13.80;;;9.88;;
71435;SDS011;59251;51.326;12.370;2023-05-21T12:37:10;13.27;;;9.47;;
71435;SDS011;59251;51.326;12.370;2023-05-21T12:39:39;12.85;;;9.55;;
71435;SDS011;59251;51.326;12.370;2023-05-21T12:42:07;13.07;;;8.75;;
71435;SDS011;59251;51.326;12.370;2023-05-21T12:44:33;12.38;;;8.80;;
71435;SDS011;59251;51.326;12.370;2023-05-21T12:46:58;13.03;;;8.93;;
71435;SDS011;59251;51.326;12.370;2023-05-21T12:49:34;13.68;;;9.18;;
71435;SDS011;59251;51.326;12.370;2023-05-21T12:52:02;13.82;;;9.35;;
71435;SDS011;59251;51.326;12.370;2023-05-21T12:54:32;12.67;;;9.10;;
71435;SDS011;59251;51.326;12.370;2023-05-21T12:57:05;12.77;;;9.05;;
71435;SDS011;59251;51.326;12.370;2023-05-21T13:02:20;11.52;;;8.23;;
71435;SDS011;59251;51.326;12.370;2023-05-21T13:04:57;12.82;;;8.10;;
71435;SDS011;59251;51.326;12.370;2023-05-21T13:07:30;12.20;;;8.83;;
71435;SDS011;59251;51.326;12.370;2023-05-21T13:09:57;14.07;;;8.82;;
71435;SDS011;59251;51.326;12.370;2023-05-21T13:12:24;12.20;;;8.88;;
71435;SDS011;59251;51.326;12.370;2023-05-21T13:14:53;13.07;;;9.05;;
71435;SDS011;59251;51.326;12.370;2023-05-21T13:17:20;12.77;;;8.68;;
71435;SDS011;59251;51.326;12.370;2023-05-21T13:20:03;14.70;;;8.97;;
71435;SDS011;59251;51.326;12.370;2023-05-21T13:22:36;13.75;;;8.80;;
71435;SDS011;59251;51.326;12.370;2023-05-21T13:25:03;14.43;;;10.40;;
71435;SDS011;59251;51.326;12.370;2023-05-21T13:27:29;13.95;;;8.75;;
71435;SDS011;59251;51.326;12.370;2023-05-21T13:29:55;13.93;;;9.03;;
71435;SDS011;59251;51.326;12.370;2023-05-21T13:32:21;12.45;;;8.20;;
71435;SDS011;59251;51.326;12.370;2023-05-21T13:34:46;13.63;;;8.43;;
71435;SDS011;59251;51.326;12.370;2023-05-21T13:37:12;12.53;;;8.30;;
71435;SDS011;59251;51.326;12.370;2023-05-21T13:39:37;13.93;;;8.25;;
71435;SDS011;59251;51.326;12.370;2023-05-21T13:42:03;11.90;;;9.00;;
71435;SDS011;59251;51.326;12.370;2023-05-21T13:44:29;13.18;;;8.75;;
71435;SDS011;59251;51.326;12.370;2023-05-21T13:46:57;12.90;;;9.23;;
71435;SDS011;59251;51.326;12.370;2023-05-21T13:49:22;13.30;;;9.43;;
71435;SDS011;59251;51.326;12.370;2023-05-21T13:51:48;14.10;;;8.37;;
71435;SDS011;59251;51.326;12.370;2023-05-21T13:54:13;13.18;;;9.30;;
71435;SDS011;59251;51.326;12.370;2023-05-21T13:56:39;12.10;;;8.20;;
71435;SDS011;59251;51.326;12.370;2023-05-21T13:59:05;11.90;;;8.77;;
71435;SDS011;59251;51.326;12.370;2023-05-21T14:01:30;12.97;;;8.40;;
71435;SDS011;59251;51.326;12.370;2023-05-21T14:03:56;12.57;;;8.53;;
71435;SDS011;59251;51.326;12.370;2023-05-21T14:06:21;13.55;;;9.02;;
71435;SDS011;59251;51.326;12.370;2023-05-21T14:08:47;17.10;;;9.40;;
71435;SDS011;59251;51.326;12.370;2023-05-21T14:11:12;14.80;;;9.40;;
71435;SDS011;59251;51.326;12.370;2023-05-21T14:13:37;12.33;;;8.07;;
71435;SDS011;59251;51.326;12.370;2023-05-21T14:16:04;13.25;;;7.90;;
71435;SDS011;59251;51.326;12.370;2023-05-21T14:18:30;13.27;;;8.20;;
71435;SDS011;59251;51.326;12.370;2023-05-21T14:20:55;12.80;;;8.20;;
71435;SDS011;59251;51.326;12.370;2023-05-21T14:23:21;11.80;;;7.63;;
71435;SDS011;59251;51.326;12.370;2023-05-21T14:25:46;13.10;;;7.90;;
71435;SDS011;59251;51.326;12.370;2023-05-21T14:28:11;14.43;;;8.70;;
71435;SDS011;59251;51.326;12.370;2023-05-21T14:30:37;12.17;;;7.43;;
71435;SDS011;59251;51.326;12.370;2023-05-21T14:33:02;13.33;;;8.47;;